Portada
METAR-TAF:

METAR-TAF

Aeroports :

Trat, Tailàndia

latitud: 12-16-28N, longitud: 102-19-08E, altitud: 32 m

Observació

L'informe es va fer fa 50 minuts, a les 01:00 UTC
Vent 4 kt del Sud
Temperatura 29°C
Humitat 84%
Pressió 1011 hPa
Visibilitat: 7000 m
Escasses núvols a una alçada de 2000 ft
Núvols disperses a una alçada de 10000 ft

METAR: VTBO 300100Z 19004KT 7000 FEW020 SCT100 29/26 Q1011

Hora: 08:50 (01:50 UTC)

Pronòstic

L'informe es va fer fa 2 hores i 50 minuts, a les 23:00 UTC
Pronòstic vàlid del 30 a les 00 UTC al 30 a les 24 UTC
Vent 10 kt del Sud-Oest
Visibilitat 10 km o més
Escasses núvols a una alçada de 2000 ft
Temporalment
l' 30 a les 01 UTC al 30 a les 05 UTC
Visibilitat: 5000 m
Escasses núvols a una alçada de 2000 ft, Cumulonimbus.
Núvols disperses a una alçada de 3000 ft
xàfecs de pluja

TAF: VTBO 292300Z 3000/3024 23010KT 9999 FEW020 TEMPO 3001/3005 5000 SHRA FEW020CB SCT030

Observacions i pronòstics meteorològics de més de 4000 aeroports (METAR i TAF).

Les estacions disponibles són els punts grocs i vermells al mapa.

Posi el ratolí al punt desitjat per veure el nom de l'estació.

Feu clic per veure les observacions i els pronòstics meteorològics.

Per canviar el mapa: feu clic els botons verds amb una creu de color negre per apropar; al botó verd amb un guió per allunyar la imatge; o en les fletxes verdes per a mapes adjacents.


METAR-TAF: